Time,TemperatureF,DewpointF,PressureIn,WindDirection,WindDirectionDegrees,WindSpeedMPH,WindSpeedGustMPH,Humidity,HourlyPrecipIn,Conditions,Clouds,dailyrainin,SoftwareType,DateUTC
2013-06-24 00:02:00,60.0,60.0,29.80,North,1,0.0,4.0,99,0.02,,,0.18,,2013-06-24 04:02:00,
2013-06-24 00:12:00,60.0,60.0,29.79,NNW,340,0.0,3.0,99,0.02,,,0.18,,2013-06-24 04:12:00,
2013-06-24 00:22:00,60.0,60.0,29.79,NNW,340,0.0,3.0,99,0.02,,,0.18,,2013-06-24 04:22:00,
2013-06-24 00:33:00,62.0,62.0,29.77,North,360,2.0,6.0,100,0.02,,,0.19,,2013-06-24 04:33:00,
2013-06-24 00:43:00,62.0,62.0,29.77,North,360,2.0,6.0,100,0.02,,,0.19,,2013-06-24 04:43:00,
2013-06-24 00:52:00,64.0,64.0,29.77,North,360,4.0,6.0,100,0.01,,,0.19,,2013-06-24 04:52:00,
2013-06-24 01:02:00,67.0,66.0,29.76,North,360,1.0,3.0,98,0.01,,,0.19,,2013-06-24 05:02:00,
2013-06-24 01:12:00,64.0,63.0,29.77,North,359,3.0,5.0,97,0.01,,,0.19,,2013-06-24 05:12:00,
2013-06-24 01:22:00,64.0,63.0,29.77,North,359,3.0,5.0,97,0.01,,,0.19,,2013-06-24 05:22:00,
2013-06-24 01:37:00,65.0,64.0,29.75,North,4,2.0,6.0,98,0.00,,,0.19,,2013-06-24 05:37:00,
2013-06-24 01:46:00,64.0,63.0,29.74,North,3,3.0,5.0,98,0.00,,,0.19,,2013-06-24 05:46:00,
2013-06-24 01:53:00,64.0,63.0,29.74,North,3,3.0,5.0,98,0.00,,,0.19,,2013-06-24 05:53:00,
2013-06-24 02:10:00,65.0,65.0,29.75,North,359,5.0,9.0,99,0.00,,,0.19,,2013-06-24 06:10:00,
2013-06-24 02:24:00,65.0,64.0,29.75,North,359,4.0,6.0,98,0.00,,,0.19,,2013-06-24 06:24:00,
2013-06-24 02:45:00,63.0,62.0,29.74,NNW,330,5.0,6.0,98,0.00,,,0.19,,2013-06-24 06:45:00,
2013-06-24 02:54:00,63.0,62.0,29.74,NNW,330,5.0,6.0,98,0.00,,,0.19,,2013-06-24 06:54:00,
2013-06-24 03:06:00,64.0,64.0,29.74,NNW,330,2.0,4.0,99,0.00,,,0.19,,2013-06-24 07:06:00,
2013-06-24 03:15:00,64.0,64.0,29.74,NNW,330,2.0,5.0,99,0.00,,,0.19,,2013-06-24 07:15:00,
2013-06-24 03:37:00,64.0,64.0,29.74,NNW,330,1.0,3.0,99,0.00,,,0.19,,2013-06-24 07:37:00,
2013-06-24 03:48:00,65.0,65.0,29.74,NNW,330,4.0,6.0,100,0.00,,,0.19,,2013-06-24 07:48:00,
2013-06-24 03:55:00,65.0,65.0,29.74,NNW,330,4.0,6.0,100,0.00,,,0.19,,2013-06-24 07:55:00,
2013-06-24 04:05:00,65.0,65.0,29.74,NNW,330,0.0,4.0,99,0.00,,,0.19,,2013-06-24 08:05:00,
2013-06-24 04:36:00,64.0,64.0,29.74,NNW,330,0.0,0.0,99,0.00,,,0.19,,2013-06-24 08:36:00,
2013-06-24 04:46:00,63.0,62.0,29.73,NNW,330,0.0,2.0,98,0.00,,,0.19,,2013-06-24 08:46:00,
2013-06-24 05:15:00,63.0,63.0,29.73,NNW,330,0.0,2.0,99,0.00,,,0.19,,2013-06-24 09:15:00,
2013-06-24 05:27:00,63.0,63.0,29.73,NNW,330,0.0,2.0,99,0.00,,,0.19,,2013-06-24 09:27:00,
2013-06-24 05:38:00,63.0,63.0,29.74,NNW,330,0.0,3.0,100,0.00,,,0.18,,2013-06-24 09:38:00,
2013-06-24 05:47:00,63.0,63.0,29.74,NNW,330,0.0,4.0,100,0.00,,,0.18,,2013-06-24 09:47:00,
2013-06-24 05:56:00,63.0,63.0,29.74,NNW,330,0.0,4.0,100,0.00,,,0.18,,2013-06-24 09:56:00,
2013-06-24 06:05:00,63.0,63.0,29.74,NNW,330,0.0,4.0,100,0.00,,,0.18,,2013-06-24 10:05:00,
2013-06-24 06:15:00,64.0,64.0,29.73,NNW,330,0.0,1.0,100,0.00,,,0.18,,2013-06-24 10:15:00,
2013-06-24 06:24:00,64.0,64.0,29.73,NNW,330,0.0,1.0,100,0.00,,,0.18,,2013-06-24 10:24:00,
2013-06-24 06:38:00,64.0,64.0,29.73,NNW,330,1.0,3.0,100,0.00,,,0.16,,2013-06-24 10:38:00,
2013-06-24 06:51:00,65.0,65.0,29.74,NNW,330,2.0,4.0,100,0.00,,,0.16,,2013-06-24 10:51:00,
2013-06-24 07:29:00,64.0,64.0,29.73,NNW,330,0.0,3.0,100,0.00,,,0.16,,2013-06-24 11:29:00,
2013-06-24 07:34:00,65.0,65.0,29.73,NNW,330,0.0,3.0,100,0.00,,,0.16,,2013-06-24 11:34:00,
2013-06-24 07:47:00,66.0,66.0,29.72,NNW,330,0.0,0.0,100,0.00,,,0.16,,2013-06-24 11:47:00,
2013-06-24 07:56:00,66.0,66.0,29.72,NNW,330,0.0,0.0,100,0.00,,,0.16,,2013-06-24 11:56:00,
2013-06-24 08:07:00,67.0,67.0,29.73,NNW,330,0.0,3.0,100,0.00,,,0.16,,2013-06-24 12:07:00,
2013-06-24 08:16:00,67.0,67.0,29.73,NNW,330,0.0,3.0,99,0.00,,,0.16,,2013-06-24 12:16:00,
2013-06-24 08:25:00,67.0,67.0,29.73,NNW,330,0.0,3.0,99,0.00,,,0.16,,2013-06-24 12:25:00,
2013-06-24 08:36:00,67.0,66.0,29.73,NNW,330,3.0,6.0,98,0.00,,,0.16,,2013-06-24 12:36:00,
2013-06-24 08:48:00,67.0,66.0,29.73,NNW,330,2.0,6.0,98,0.00,,,0.16,,2013-06-24 12:48:00,
2013-06-24 09:14:00,66.0,65.0,29.72,NNW,330,4.0,5.0,97,0.00,,,0.16,,2013-06-24 13:14:00,
2013-06-24 09:24:00,67.0,66.0,29.72,NNW,330,0.0,6.0,97,0.00,,,0.16,,2013-06-24 13:24:00,
2013-06-24 09:45:00,70.0,68.0,29.72,NNW,330,1.0,4.0,95,0.00,,,0.10,,2013-06-24 13:45:00,
2013-06-24 10:25:00,70.0,68.0,29.71,NNW,330,2.0,5.0,94,0.00,,,0.10,,2013-06-24 14:25:00,
2013-06-24 10:38:00,72.0,70.0,29.70,NNW,330,1.0,5.0,92,0.00,,,0.04,,2013-06-24 14:38:00,
2013-06-24 11:06:00,71.0,69.0,29.70,NNW,328,6.0,11.0,92,0.00,,,0.04,,2013-06-24 15:06:00,
2013-06-24 11:27:00,71.0,68.0,29.70,NNW,328,6.0,10.0,91,0.00,,,0.04,,2013-06-24 15:27:00,
2013-06-24 11:36:00,71.0,69.0,29.70,NNW,329,6.0,9.0,92,0.00,,,0.04,,2013-06-24 15:36:00,
2013-06-24 11:46:00,72.0,69.0,29.70,NNW,328,3.0,9.0,91,0.00,,,0.04,,2013-06-24 15:46:00,
2013-06-24 12:24:00,73.0,69.0,29.70,NW,323,3.0,8.0,87,0.00,,,0.04,,2013-06-24 16:24:00,
2013-06-24 12:36:00,75.0,71.0,29.70,NW,323,4.0,6.0,86,0.00,,,0.04,,2013-06-24 16:36:00,
2013-06-24 12:55:00,75.0,71.0,29.70,NW,325,1.0,8.0,86,0.00,,,0.04,,2013-06-24 16:55:00,
2013-06-24 13:15:00,80.0,71.0,29.70,East,91,5.0,9.0,75,0.00,,,0.04,,2013-06-24 17:15:00,
2013-06-24 13:25:00,80.0,71.0,29.70,ENE,73,3.0,10.0,73,0.00,,,0.04,,2013-06-24 17:25:00,
2013-06-24 13:47:00,81.0,71.0,29.69,East,88,4.0,9.0,72,0.00,,,0.04,,2013-06-24 17:47:00,
2013-06-24 13:55:00,81.0,71.0,29.69,East,88,4.0,9.0,72,0.00,,,0.04,,2013-06-24 17:55:00,
2013-06-24 14:26:00,83.0,71.0,29.68,ENE,72,5.0,11.0,67,0.00,,,0.04,,2013-06-24 18:26:00,
2013-06-24 14:36:00,83.0,71.0,29.68,ENE,58,4.0,8.0,67,0.00,,,0.04,,2013-06-24 18:36:00,
2013-06-24 15:13:00,83.0,70.0,29.67,ENE,63,3.0,8.0,66,0.00,,,0.04,,2013-06-24 19:13:00,
2013-06-24 15:25:00,85.0,71.0,29.67,NE,34,5.0,9.0,63,0.00,,,0.04,,2013-06-24 19:25:00,
2013-06-24 15:37:00,85.0,72.0,29.67,NNW,347,4.0,9.0,65,0.00,,,0.04,,2013-06-24 19:37:00,
2013-06-24 15:45:00,85.0,71.0,29.66,North,359,3.0,7.0,64,0.00,,,0.04,,2013-06-24 19:45:00,
2013-06-24 15:54:00,85.0,71.0,29.66,North,359,3.0,7.0,64,0.00,,,0.04,,2013-06-24 19:54:00,
2013-06-24 16:24:00,85.0,72.0,29.65,NW,323,4.0,8.0,66,0.00,,,0.04,,2013-06-24 20:24:00,
2013-06-24 16:34:00,83.0,71.0,29.65,North,359,3.0,10.0,67,0.00,,,0.04,,2013-06-24 20:34:00,
2013-06-24 16:45:00,83.0,71.0,29.65,NNW,334,3.0,7.0,68,0.00,,,0.04,,2013-06-24 20:45:00,
2013-06-24 16:54:00,83.0,71.0,29.65,NNW,334,3.0,7.0,68,0.00,,,0.04,,2013-06-24 20:54:00,
2013-06-24 17:25:00,83.0,71.0,29.65,NNW,330,4.0,6.0,67,0.00,,,0.04,,2013-06-24 21:25:00,
2013-06-24 17:46:00,81.0,70.0,29.64,NW,324,4.0,6.0,69,0.00,,,0.04,,2013-06-24 21:46:00,
2013-06-24 17:54:00,81.0,70.0,29.64,NW,324,4.0,6.0,69,0.00,,,0.04,,2013-06-24 21:54:00,
2013-06-24 18:07:00,82.0,70.0,29.63,NW,323,4.0,5.0,68,0.00,,,0.04,,2013-06-24 22:07:00,
2013-06-24 18:36:00,81.0,70.0,29.64,NNW,344,3.0,7.0,69,0.00,,,0.04,,2013-06-24 22:36:00,
2013-06-24 18:55:00,80.0,69.0,29.64,NNW,331,3.0,6.0,69,0.00,,,0.04,,2013-06-24 22:55:00,
2013-06-24 19:06:00,81.0,70.0,29.64,NNW,331,1.0,4.0,69,0.00,,,0.04,,2013-06-24 23:06:00,
2013-06-24 19:14:00,80.0,69.0,29.64,NNW,331,0.0,4.0,70,0.00,,,0.04,,2013-06-24 23:14:00,
2013-06-24 19:27:00,80.0,69.0,29.64,NNW,331,0.0,4.0,70,0.00,,,0.04,,2013-06-24 23:27:00,
2013-06-24 19:45:00,80.0,69.0,29.64,NNW,331,2.0,7.0,70,0.00,,,0.04,,2013-06-24 23:45:00,
2013-06-24 20:06:00,77.0,68.0,29.64,NNW,332,3.0,6.0,73,0.00,,,0.04,,2013-06-25 00:06:00,
2013-06-24 20:13:00,77.0,68.0,29.64,NNW,332,3.0,6.0,73,0.00,,,0.04,,2013-06-25 00:13:00,
2013-06-24 20:24:00,77.0,69.0,29.64,NNW,340,3.0,5.0,76,0.00,,,0.04,,2013-06-25 00:24:00,
2013-06-24 20:35:00,76.0,68.0,29.64,NNW,339,2.0,5.0,77,0.00,,,0.04,,2013-06-25 00:35:00,
2013-06-24 20:47:00,75.0,68.0,29.64,NNW,339,1.0,5.0,79,0.00,,,0.04,,2013-06-25 00:47:00,
2013-06-24 21:04:00,75.0,68.0,29.64,NNW,339,3.0,5.0,79,0.00,,,0.04,,2013-06-25 01:04:00,
2013-06-24 21:24:00,74.0,67.0,29.65,NNW,339,4.0,5.0,80,0.00,,,0.04,,2013-06-25 01:24:00,
2013-06-24 21:55:00,72.0,67.0,29.66,NNW,346,2.0,4.0,84,0.00,,,0.04,,2013-06-25 01:55:00,
2013-06-24 22:25:00,72.0,67.0,29.66,NNW,346,4.0,6.0,85,0.00,,,0.04,,2013-06-25 02:25:00,
2013-06-24 22:37:00,71.0,67.0,29.66,NNW,346,3.0,5.0,86,0.00,,,0.04,,2013-06-25 02:37:00,
2013-06-24 22:46:00,69.0,65.0,29.65,NNW,346,4.0,7.0,88,0.00,,,0.04,,2013-06-25 02:46:00,
2013-06-24 22:56:00,69.0,65.0,29.65,NNW,346,4.0,7.0,88,0.00,,,0.04,,2013-06-25 02:56:00,
2013-06-24 23:53:00,71.0,67.0,29.65,NNW,346,4.0,6.0,86,0.00,,,0.03,,2013-06-25 03:53:00,